createdAt,value
2019-03-27T00:01:47.381Z,87.50
2019-03-27T00:04:13.524Z,87.60
2019-03-27T00:06:39.692Z,87.90
2019-03-27T00:09:06.051Z,88.90
2019-03-27T00:11:33.014Z,87.50
2019-03-27T00:13:59.163Z,87.90
2019-03-27T00:16:25.319Z,88.20
2019-03-27T00:18:51.467Z,88.10
2019-03-27T00:21:17.619Z,88.40
2019-03-27T00:23:44.020Z,88.70
2019-03-27T00:26:10.741Z,89.30
2019-03-27T00:28:37.005Z,89.50
2019-03-27T00:31:03.147Z,89.50
2019-03-27T00:33:29.362Z,89.80
2019-03-27T00:35:55.505Z,90.10
2019-03-27T00:38:21.658Z,90.10
2019-03-27T00:40:48.026Z,90.10
2019-03-27T00:43:14.348Z,90.20
2019-03-27T00:45:40.484Z,90.20
2019-03-27T00:48:06.640Z,90.40
2019-03-27T00:50:33.095Z,90.30
2019-03-27T00:52:59.248Z,90.50
2019-03-27T00:55:26.391Z,90.60
2019-03-27T00:57:53.548Z,90.60
2019-03-27T01:00:28.796Z,90.70
2019-03-27T01:02:54.954Z,91.10
2019-03-27T01:05:21.315Z,90.60
2019-03-27T01:07:47.666Z,90.70
2019-03-27T01:10:14.388Z,91.00
2019-03-27T01:12:40.543Z,90.50
2019-03-27T01:15:07.101Z,90.60
2019-03-27T01:17:33.268Z,91.00
2019-03-27T01:19:59.437Z,90.80
2019-03-27T01:22:26.589Z,91.00
2019-03-27T01:24:52.746Z,91.10
2019-03-27T01:27:18.891Z,90.60
2019-03-27T01:29:45.052Z,91.00
2019-03-27T01:32:11.199Z,91.40
2019-03-27T01:34:37.356Z,91.30
2019-03-27T01:37:03.512Z,91.30
2019-03-27T01:39:29.663Z,91.10
2019-03-27T01:41:55.808Z,91.50
2019-03-27T01:44:22.307Z,91.50
2019-03-27T01:46:48.454Z,91.60
2019-03-27T01:49:14.615Z,91.70
2019-03-27T01:51:40.769Z,91.70
2019-03-27T01:54:06.919Z,91.80
2019-03-27T01:56:33.066Z,92.00
2019-03-27T01:58:59.226Z,91.90
2019-03-27T02:01:25.379Z,91.70
2019-03-27T02:03:51.543Z,91.70
2019-03-27T02:06:17.695Z,92.00
2019-03-27T02:08:43.858Z,92.10
2019-03-27T02:11:10.295Z,92.20
2019-03-27T02:13:36.460Z,92.40
2019-03-27T02:16:07.075Z,92.50
2019-03-27T02:18:30.668Z,92.60
2019-03-27T02:20:56.820Z,92.70
2019-03-27T02:23:22.967Z,92.80
2019-03-27T02:25:49.116Z,92.80
2019-03-27T02:28:15.268Z,91.90
2019-03-27T02:30:41.429Z,92.70
2019-03-27T02:33:07.577Z,92.50
2019-03-27T02:35:33.736Z,92.80
2019-03-27T02:37:59.885Z,92.80
2019-03-27T02:40:26.043Z,92.70
2019-03-27T02:42:52.193Z,92.80
2019-03-27T02:45:18.339Z,92.20
2019-03-27T02:47:44.487Z,91.40
2019-03-27T02:50:10.640Z,92.00
2019-03-27T02:52:36.768Z,92.70
2019-03-27T02:55:06.231Z,92.80
2019-03-27T02:57:32.367Z,92.80
2019-03-27T02:59:58.515Z,92.30
2019-03-27T03:02:24.647Z,92.30
2019-03-27T03:04:50.802Z,92.90
2019-03-27T03:07:16.936Z,93.10
2019-03-27T03:09:43.079Z,93.60
2019-03-27T03:12:09.264Z,93.90
2019-03-27T03:14:35.403Z,93.40
2019-03-27T03:17:01.544Z,93.70
2019-03-27T03:19:28.778Z,93.20
2019-03-27T03:21:54.922Z,93.80
2019-03-27T03:24:21.360Z,93.90
2019-03-27T03:26:51.051Z,94.30
2019-03-27T03:29:15.565Z,94.40
2019-03-27T03:31:41.712Z,94.20
2019-03-27T03:34:07.860Z,94.50
2019-03-27T03:36:34.354Z,94.70
2019-03-27T03:39:00.481Z,94.80
2019-03-27T03:41:26.992Z,94.60
2019-03-27T03:43:53.295Z,94.90
2019-03-27T03:46:19.785Z,94.80
2019-03-27T03:48:46.924Z,94.70
2019-03-27T03:51:13.276Z,94.40
2019-03-27T03:53:39.540Z,94.50
2019-03-27T03:56:06.486Z,94.10
2019-03-27T03:58:35.345Z,94.50
2019-03-27T04:01:01.693Z,94.40
2019-03-27T04:03:29.116Z,94.40
2019-03-27T04:05:55.366Z,94.40
2019-03-27T04:08:21.514Z,94.40
2019-03-27T04:10:47.662Z,94.40
2019-03-27T04:13:14.906Z,94.20
2019-03-27T04:15:42.151Z,94.30
2019-03-27T04:18:08.620Z,94.50
2019-03-27T04:20:34.773Z,94.30
2019-03-27T04:23:00.917Z,93.50
2019-03-27T04:25:28.072Z,94.70
2019-03-27T04:27:54.307Z,94.80
2019-03-27T04:30:20.458Z,94.90
2019-03-27T04:32:46.607Z,95.00
2019-03-27T04:35:12.741Z,94.70
2019-03-27T04:37:39.019Z,95.20
2019-03-27T04:40:05.361Z,95.10
2019-03-27T04:42:31.507Z,95.10
2019-03-27T04:44:57.750Z,95.20
2019-03-27T04:47:32.177Z,95.30
2019-03-27T04:49:51.943Z,95.50
2019-03-27T04:52:18.099Z,95.50
2019-03-27T04:54:44.231Z,95.60
2019-03-27T04:57:11.378Z,95.40
2019-03-27T04:59:37.767Z,95.30
2019-03-27T05:02:06.497Z,95.50
2019-03-27T05:04:33.666Z,95.50
2019-03-27T05:06:59.806Z,95.60
2019-03-27T05:09:25.955Z,95.80
2019-03-27T05:11:52.107Z,96.10
2019-03-27T05:14:18.246Z,96.10
2019-03-27T05:16:44.379Z,96.20
2019-03-27T05:19:10.551Z,96.20
2019-03-27T05:21:36.703Z,96.30
2019-03-27T05:24:03.036Z,96.40
2019-03-27T05:26:29.170Z,96.40
2019-03-27T05:28:55.310Z,96.50
2019-03-27T05:31:21.451Z,96.30
2019-03-27T05:33:47.851Z,96.30
2019-03-27T05:36:13.992Z,96.00
2019-03-27T05:38:40.137Z,95.30
2019-03-27T05:41:06.279Z,96.00
2019-03-27T05:43:32.656Z,96.30
2019-03-27T05:45:58.799Z,96.00
2019-03-27T05:48:24.985Z,95.60
2019-03-27T05:50:51.607Z,95.80
2019-03-27T05:53:17.750Z,95.80
2019-03-27T05:55:43.897Z,95.80
2019-03-27T05:58:10.049Z,95.40
2019-03-27T06:00:36.479Z,95.80
2019-03-27T06:03:03.629Z,95.80
2019-03-27T06:05:29.783Z,95.80
2019-03-27T06:07:55.932Z,95.80
2019-03-27T06:10:22.095Z,95.50
2019-03-27T06:12:48.230Z,95.60
2019-03-27T06:15:14.655Z,95.80
2019-03-27T06:17:40.810Z,95.80
2019-03-27T06:20:09.206Z,95.80
2019-03-27T06:22:35.339Z,95.80
2019-03-27T06:25:01.528Z,95.80
2019-03-27T06:27:27.659Z,95.00
2019-03-27T06:29:53.814Z,94.10
2019-03-27T06:32:19.950Z,93.50
2019-03-27T06:34:46.442Z,92.60
2019-03-27T06:37:13.599Z,91.90
2019-03-27T06:39:40.011Z,91.20
2019-03-27T06:42:06.142Z,90.90
2019-03-27T06:44:32.290Z,90.00
2019-03-27T06:46:58.704Z,88.60
2019-03-27T06:49:24.855Z,88.50
2019-03-27T06:51:51.992Z,88.90
2019-03-27T06:54:18.135Z,88.70
2019-03-27T06:56:44.271Z,90.10
2019-03-27T06:59:10.420Z,88.90
2019-03-27T07:01:36.924Z,87.90
2019-03-27T07:04:10.515Z,88.20
2019-03-27T07:06:31.608Z,88.60
2019-03-27T07:08:57.770Z,89.20
2019-03-27T07:11:23.952Z,90.00
2019-03-27T07:13:50.088Z,88.70
2019-03-27T07:16:16.243Z,89.00
2019-03-27T07:18:42.379Z,89.30
2019-03-27T07:21:08.772Z,88.60
2019-03-27T07:23:35.219Z,90.00
2019-03-27T07:26:01.470Z,89.70
2019-03-27T07:28:27.622Z,88.90
2019-03-27T07:30:53.767Z,89.20
2019-03-27T07:33:19.932Z,88.30
2019-03-27T07:35:46.077Z,88.50
2019-03-27T07:38:12.470Z,88.50
2019-03-27T07:40:38.851Z,87.50
2019-03-27T07:43:04.987Z,87.30
2019-03-27T07:45:31.131Z,86.40
2019-03-27T07:47:57.271Z,84.80
2019-03-27T07:50:23.418Z,83.50
2019-03-27T07:52:49.552Z,83.80
2019-03-27T07:55:19.759Z,81.80
2019-03-27T07:57:43.753Z,83.80
2019-03-27T08:00:16.748Z,82.90
2019-03-27T08:02:43.087Z,81.40
2019-03-27T08:05:09.732Z,77.50
2019-03-27T08:07:36.123Z,78.30
2019-03-27T08:10:04.967Z,77.60
2019-03-27T08:12:31.112Z,76.40
2019-03-27T08:14:57.259Z,75.80
2019-03-27T08:17:23.419Z,75.30
2019-03-27T08:19:49.826Z,74.90
2019-03-27T08:22:16.254Z,74.90
2019-03-27T08:24:42.406Z,76.70
2019-03-27T08:27:08.538Z,76.90
2019-03-27T08:29:34.683Z,76.90
2019-03-27T08:32:00.929Z,76.40
2019-03-27T08:34:27.079Z,74.20
2019-03-27T08:36:53.227Z,72.90
2019-03-27T08:39:19.364Z,72.80
2019-03-27T08:41:45.554Z,72.00
2019-03-27T08:44:11.699Z,70.70
2019-03-27T08:46:37.866Z,70.20
2019-03-27T08:49:04.002Z,72.70
2019-03-27T08:51:31.142Z,74.60
2019-03-27T08:53:57.285Z,75.00
2019-03-27T08:56:23.445Z,76.10
2019-03-27T08:58:49.592Z,78.10
2019-03-27T09:01:15.735Z,77.20
2019-03-27T09:03:41.966Z,75.80
2019-03-27T09:06:09.122Z,74.10
2019-03-27T09:08:35.275Z,71.60
2019-03-27T09:11:04.508Z,68.90
2019-03-27T09:13:29.459Z,67.10
2019-03-27T09:15:55.615Z,65.90
2019-03-27T09:18:21.780Z,66.50
2019-03-27T09:20:48.037Z,66.20
2019-03-27T09:23:14.195Z,67.20
2019-03-27T09:25:40.679Z,68.50
2019-03-27T09:28:08.131Z,69.00
2019-03-27T09:30:34.307Z,70.90
2019-03-27T09:33:00.438Z,70.70
2019-03-27T09:35:26.609Z,71.20
2019-03-27T09:37:52.764Z,71.60
2019-03-27T09:40:18.926Z,72.40
2019-03-27T09:42:45.091Z,72.10
2019-03-27T09:45:12.730Z,73.00
2019-03-27T09:47:38.991Z,73.20
2019-03-27T09:50:06.439Z,73.70
2019-03-27T09:52:32.588Z,73.50
2019-03-27T09:54:58.730Z,73.70
2019-03-27T09:57:24.901Z,72.60
2019-03-27T09:59:51.335Z,72.00
2019-03-27T10:02:17.492Z,71.60
2019-03-27T10:04:43.630Z,71.70
2019-03-27T10:07:10.026Z,70.40
2019-03-27T10:09:36.171Z,70.10
2019-03-27T10:12:02.740Z,71.70
2019-03-27T10:14:29.126Z,69.00
2019-03-27T10:16:55.281Z,70.90
2019-03-27T10:19:21.443Z,71.90
2019-03-27T10:21:47.590Z,70.90
2019-03-27T10:24:14.034Z,69.90
2019-03-27T10:26:42.603Z,68.40
2019-03-27T10:29:08.507Z,69.40
2019-03-27T10:31:34.708Z,69.10
2019-03-27T10:34:00.847Z,67.60
2019-03-27T10:36:27.001Z,67.30
2019-03-27T10:38:53.140Z,66.80
2019-03-27T10:41:19.333Z,67.30
2019-03-27T10:43:45.805Z,66.40
2019-03-27T10:46:11.957Z,64.80
2019-03-27T10:48:51.553Z,65.40
2019-03-27T10:51:06.199Z,65.20
2019-03-27T10:53:32.363Z,65.00
2019-03-27T10:55:58.550Z,63.40
2019-03-27T10:58:26.625Z,62.70
2019-03-27T11:00:52.799Z,62.30
2019-03-27T11:03:19.960Z,62.10
2019-03-27T11:05:46.103Z,62.70
2019-03-27T11:08:12.252Z,63.60
2019-03-27T11:10:38.439Z,63.70
2019-03-27T11:13:04.583Z,62.80
2019-03-27T11:15:30.980Z,63.10
2019-03-27T11:17:57.330Z,63.00
2019-03-27T11:20:30.875Z,59.50
2019-03-27T11:22:51.523Z,59.70
2019-03-27T11:25:17.767Z,58.10
2019-03-27T11:27:43.917Z,58.90
2019-03-27T11:30:10.762Z,59.60
2019-03-27T11:32:37.006Z,59.80
2019-03-27T11:35:04.555Z,60.70
2019-03-27T11:37:31.023Z,59.90
2019-03-27T11:39:57.184Z,60.50
2019-03-27T11:42:23.341Z,62.40
2019-03-27T11:44:49.863Z,61.30
2019-03-27T11:47:16.095Z,61.30
2019-03-27T11:49:42.334Z,60.30
2019-03-27T11:52:09.462Z,59.40
2019-03-27T11:54:35.592Z,59.30
2019-03-27T11:57:01.995Z,59.10
2019-03-27T11:59:28.143Z,59.70
2019-03-27T12:01:54.276Z,59.30
2019-03-27T12:04:20.415Z,58.60
2019-03-27T12:06:46.558Z,59.30
2019-03-27T12:09:12.711Z,59.10
2019-03-27T12:11:57.067Z,60.00
2019-03-27T12:14:23.214Z,59.40
2019-03-27T12:16:50.354Z,57.40
2019-03-27T12:19:16.487Z,57.70
2019-03-27T12:21:42.902Z,56.70
2019-03-27T12:24:10.050Z,55.90
2019-03-27T12:26:36.497Z,56.90
2019-03-27T12:29:02.639Z,56.40
2019-03-27T12:31:28.786Z,56.10
2019-03-27T12:33:54.931Z,57.70
2019-03-27T12:36:21.077Z,57.10
2019-03-27T12:38:47.226Z,56.80
2019-03-27T12:41:13.356Z,57.80
2019-03-27T12:43:39.543Z,59.10
2019-03-27T12:46:06.783Z,60.00
2019-03-27T12:48:32.943Z,59.40
2019-03-27T12:51:12.123Z,59.50
2019-03-27T12:53:27.467Z,59.20
2019-03-27T12:55:53.614Z,58.30
2019-03-27T12:58:19.749Z,57.60
2019-03-27T13:00:45.889Z,58.30
2019-03-27T13:03:12.274Z,58.60
2019-03-27T13:05:38.410Z,59.50
2019-03-27T13:08:05.662Z,59.20
2019-03-27T13:10:31.802Z,59.90
2019-03-27T13:12:57.946Z,59.30
2019-03-27T13:15:24.091Z,58.10
2019-03-27T13:17:50.560Z,57.90
2019-03-27T13:20:17.107Z,58.20
2019-03-27T13:22:43.537Z,59.30
2019-03-27T13:25:09.889Z,59.60
2019-03-27T13:27:36.459Z,59.50
2019-03-27T13:30:07.134Z,60.00
2019-03-27T13:32:33.572Z,60.10
2019-03-27T13:34:59.736Z,61.20
2019-03-27T13:37:26.144Z,60.80
2019-03-27T13:39:52.322Z,59.80
2019-03-27T13:42:18.805Z,58.80
2019-03-27T13:44:44.958Z,58.90
2019-03-27T13:47:11.214Z,59.20
2019-03-27T13:49:37.562Z,58.70
2019-03-27T13:52:03.811Z,58.60
2019-03-27T13:54:29.959Z,58.30
2019-03-27T13:56:56.087Z,58.10
2019-03-27T13:59:22.243Z,58.00
2019-03-27T14:01:48.380Z,58.50
2019-03-27T14:04:14.530Z,59.10
2019-03-27T14:06:40.660Z,59.80
2019-03-27T14:09:07.016Z,59.90
2019-03-27T14:11:33.250Z,59.90
2019-03-27T14:14:10.544Z,59.40
2019-03-27T14:16:27.442Z,59.70
2019-03-27T14:18:53.691Z,59.20
2019-03-27T14:21:23.329Z,58.00
2019-03-27T14:23:48.895Z,57.60
2019-03-27T14:26:15.042Z,58.20
2019-03-27T14:28:41.197Z,58.80
2019-03-27T14:31:07.662Z,58.60
2019-03-27T14:33:33.794Z,59.30
2019-03-27T14:35:59.947Z,58.80
2019-03-27T14:38:26.088Z,57.10
2019-03-27T14:40:52.476Z,57.80
2019-03-27T14:43:18.907Z,58.40
2019-03-27T14:45:45.053Z,59.10
2019-03-27T14:48:11.200Z,58.10
2019-03-27T14:50:37.595Z,57.00
2019-03-27T14:53:04.025Z,57.30
2019-03-27T14:55:30.172Z,57.00
2019-03-27T14:57:56.311Z,57.30
2019-03-27T15:00:22.559Z,56.60
2019-03-27T15:02:48.706Z,58.10
2019-03-27T15:05:15.047Z,58.70
2019-03-27T15:07:41.175Z,58.30
2019-03-27T15:10:07.975Z,58.10
2019-03-27T15:12:34.617Z,58.20
2019-03-27T15:15:00.766Z,59.60
2019-03-27T15:17:26.907Z,59.90
2019-03-27T15:19:53.103Z,60.10
2019-03-27T15:22:22.655Z,60.30
2019-03-27T15:24:47.284Z,59.90
2019-03-27T15:27:13.445Z,59.30
2019-03-27T15:29:39.574Z,59.90
2019-03-27T15:32:05.848Z,59.70
2019-03-27T15:34:32.281Z,59.40
2019-03-27T15:36:58.431Z,59.40
2019-03-27T15:39:24.668Z,59.80
2019-03-27T15:41:51.055Z,59.80
2019-03-27T15:44:17.195Z,60.30
2019-03-27T15:46:43.339Z,60.40
2019-03-27T15:49:09.486Z,60.20
2019-03-27T15:51:35.627Z,59.80
2019-03-27T15:54:02.099Z,60.50
2019-03-27T15:56:28.243Z,60.40
2019-03-27T15:58:56.282Z,60.00
2019-03-27T16:01:22.578Z,60.00
2019-03-27T16:03:48.734Z,61.00
2019-03-27T16:06:15.190Z,59.80
2019-03-27T16:08:41.371Z,59.70
2019-03-27T16:11:07.507Z,59.30
2019-03-27T16:13:33.655Z,60.00
2019-03-27T16:15:59.795Z,59.90
2019-03-27T16:18:26.224Z,59.20
2019-03-27T16:20:52.371Z,59.30
2019-03-27T16:23:18.502Z,59.30
2019-03-27T16:25:44.639Z,59.90
2019-03-27T16:28:10.987Z,59.00
2019-03-27T16:30:37.367Z,59.60
2019-03-27T16:33:03.799Z,59.10
2019-03-27T16:35:30.039Z,59.90
2019-03-27T16:37:56.303Z,60.60
2019-03-27T16:40:42.922Z,60.00
2019-03-27T16:43:09.177Z,60.30
2019-03-27T16:45:35.315Z,61.50
2019-03-27T16:48:01.466Z,62.00
2019-03-27T16:50:28.594Z,62.40
2019-03-27T16:53:03.501Z,62.00
2019-03-27T16:55:22.786Z,62.10
2019-03-27T16:57:51.318Z,62.10
2019-03-27T17:00:17.687Z,62.40
2019-03-27T17:02:43.822Z,61.90
2019-03-27T17:05:09.967Z,61.90
2019-03-27T17:07:36.103Z,61.90
2019-03-27T17:10:05.283Z,62.40
2019-03-27T17:12:31.672Z,63.70
2019-03-27T17:14:58.158Z,63.40
2019-03-27T17:17:42.675Z,63.40
2019-03-27T17:20:10.630Z,63.50
2019-03-27T17:22:36.763Z,63.50
2019-03-27T17:25:05.119Z,63.30
2019-03-27T17:27:31.254Z,63.10
2019-03-27T17:29:57.402Z,62.80
2019-03-27T17:32:23.551Z,63.20
2019-03-27T17:34:51.925Z,63.60
2019-03-27T17:37:17.743Z,63.60
2019-03-27T17:39:43.903Z,63.20
2019-03-27T17:42:10.318Z,63.90
2019-03-27T17:44:36.470Z,64.40
2019-03-27T17:47:02.603Z,63.60
2019-03-27T17:49:28.764Z,63.60
2019-03-27T17:51:54.916Z,64.00
2019-03-27T17:54:21.365Z,64.60
2019-03-27T17:56:48.664Z,64.10
2019-03-27T17:59:14.823Z,64.80
2019-03-27T18:01:41.359Z,64.80
2019-03-27T18:04:07.502Z,65.80
2019-03-27T18:06:34.655Z,66.10
2019-03-27T18:09:00.809Z,65.70
2019-03-27T18:11:26.943Z,65.30
2019-03-27T18:13:53.069Z,65.50
2019-03-27T18:16:19.231Z,65.80
2019-03-27T18:18:45.370Z,66.00
2019-03-27T18:21:11.527Z,66.40
2019-03-27T18:23:45.932Z,66.50
2019-03-27T18:26:05.721Z,66.60
2019-03-27T18:28:32.165Z,66.70
2019-03-27T18:30:58.311Z,67.00
2019-03-27T18:33:24.453Z,67.40
2019-03-27T18:35:50.857Z,67.20
2019-03-27T18:38:16.986Z,67.40
2019-03-27T18:40:43.236Z,67.40
2019-03-27T18:43:09.387Z,67.10
2019-03-27T18:45:35.558Z,67.00
2019-03-27T18:48:01.798Z,67.40
2019-03-27T18:50:28.202Z,67.50
2019-03-27T18:52:54.639Z,67.70
2019-03-27T18:55:26.259Z,67.90
2019-03-27T18:57:59.544Z,67.80
2019-03-27T19:00:17.444Z,67.80
2019-03-27T19:02:43.659Z,67.60
2019-03-27T19:05:10.024Z,67.60
2019-03-27T19:07:36.153Z,67.80
2019-03-27T19:10:04.416Z,68.00
2019-03-27T19:12:32.308Z,68.40
2019-03-27T19:14:58.444Z,68.50
2019-03-27T19:17:24.601Z,68.40
2019-03-27T19:19:50.735Z,68.70
2019-03-27T19:22:16.888Z,68.60
2019-03-27T19:24:43.024Z,69.40
2019-03-27T19:27:09.189Z,69.10
2019-03-27T19:29:35.423Z,69.50
2019-03-27T19:32:01.595Z,69.80
2019-03-27T19:34:27.750Z,71.10
2019-03-27T19:36:53.910Z,69.80
2019-03-27T19:39:20.058Z,70.00
2019-03-27T19:41:46.315Z,70.10
2019-03-27T19:44:12.696Z,69.80
2019-03-27T19:46:38.955Z,70.20
2019-03-27T19:49:05.373Z,70.30
2019-03-27T19:51:32.535Z,70.30
2019-03-27T19:53:58.672Z,70.10
2019-03-27T19:56:24.818Z,70.30
2019-03-27T19:58:51.308Z,70.50
2019-03-27T20:01:17.443Z,70.90
2019-03-27T20:03:43.596Z,71.10
2019-03-27T20:06:09.809Z,71.20
2019-03-27T20:08:36.194Z,71.00
2019-03-27T20:11:02.332Z,70.40
2019-03-27T20:13:28.503Z,71.40
2019-03-27T20:15:54.652Z,71.20
2019-03-27T20:18:20.804Z,71.30
2019-03-27T20:20:46.941Z,71.40
2019-03-27T20:23:15.195Z,70.90
2019-03-27T20:25:41.160Z,71.40
2019-03-27T20:28:07.593Z,73.00
2019-03-27T20:30:33.754Z,72.10
2019-03-27T20:33:00.184Z,71.70
2019-03-27T20:35:26.580Z,72.50
2019-03-27T20:37:52.724Z,72.70
2019-03-27T20:40:19.087Z,73.90
2019-03-27T20:42:45.471Z,73.10
2019-03-27T20:45:12.059Z,73.30
2019-03-27T20:47:38.539Z,73.80
2019-03-27T20:50:05.587Z,74.10
2019-03-27T20:52:31.751Z,74.70
2019-03-27T20:54:57.998Z,74.10
2019-03-27T20:57:24.126Z,74.50
2019-03-27T20:59:50.382Z,74.60
2019-03-27T21:02:16.527Z,74.40
2019-03-27T21:04:42.919Z,74.20
2019-03-27T21:07:09.075Z,74.10
2019-03-27T21:09:35.228Z,74.00
2019-03-27T21:12:01.366Z,74.60
2019-03-27T21:14:27.527Z,74.70
2019-03-27T21:16:54.000Z,74.70
2019-03-27T21:19:20.154Z,75.30
2019-03-27T21:21:46.338Z,76.80
2019-03-27T21:24:12.583Z,76.20
2019-03-27T21:26:38.774Z,76.60
2019-03-27T21:29:05.039Z,77.00
2019-03-27T21:31:31.250Z,77.10
2019-03-27T21:33:57.789Z,76.80
2019-03-27T21:36:24.140Z,77.40
2019-03-27T21:38:50.281Z,77.50
2019-03-27T21:41:16.419Z,78.20
2019-03-27T21:43:42.566Z,77.70
2019-03-27T21:46:08.723Z,78.00
2019-03-27T21:48:34.850Z,78.20
2019-03-27T21:51:00.995Z,78.40
2019-03-27T21:53:27.142Z,78.20
2019-03-27T21:55:53.518Z,78.10
2019-03-27T21:58:19.656Z,78.40
2019-03-27T22:00:45.802Z,78.30
2019-03-27T22:03:11.991Z,78.30
2019-03-27T22:05:38.135Z,78.00
2019-03-27T22:08:04.379Z,77.20
2019-03-27T22:10:30.819Z,77.00
2019-03-27T22:12:56.967Z,76.10
2019-03-27T22:15:23.103Z,76.00
2019-03-27T22:17:49.251Z,76.50
2019-03-27T22:20:15.387Z,77.20
2019-03-27T22:22:41.550Z,78.20
2019-03-27T22:25:07.890Z,78.90
2019-03-27T22:27:34.022Z,79.00
2019-03-27T22:30:00.365Z,78.50
2019-03-27T22:32:26.610Z,77.80
2019-03-27T22:34:52.771Z,78.90
2019-03-27T22:37:18.919Z,78.40
2019-03-27T22:39:45.055Z,78.50
2019-03-27T22:42:11.203Z,79.00
2019-03-27T22:44:37.336Z,78.50
2019-03-27T22:47:03.483Z,78.40
2019-03-27T22:49:29.617Z,78.50
2019-03-27T22:51:55.818Z,78.30
2019-03-27T22:54:21.953Z,78.10
2019-03-27T22:56:48.107Z,78.00
2019-03-27T22:59:14.250Z,78.30
2019-03-27T23:01:46.136Z,79.00
2019-03-27T23:04:12.279Z,78.70
2019-03-27T23:06:38.430Z,79.00
2019-03-27T23:09:05.226Z,79.30
2019-03-27T23:11:31.583Z,79.20
2019-03-27T23:13:58.006Z,80.40
2019-03-27T23:16:24.138Z,79.40
2019-03-27T23:18:50.278Z,79.10
2019-03-27T23:21:16.412Z,79.40
2019-03-27T23:23:42.559Z,78.60
2019-03-27T23:26:09.134Z,77.70
2019-03-27T23:28:35.662Z,78.30
2019-03-27T23:31:01.910Z,78.20
2019-03-27T23:33:28.056Z,79.60
2019-03-27T23:35:54.195Z,80.50
2019-03-27T23:38:20.343Z,80.40
2019-03-27T23:40:46.485Z,80.70
2019-03-27T23:43:12.938Z,80.50
2019-03-27T23:45:39.311Z,80.80
2019-03-27T23:48:05.803Z,81.10
2019-03-27T23:50:32.235Z,80.50
2019-03-27T23:52:58.453Z,80.40
2019-03-27T23:55:24.589Z,80.00
2019-03-27T23:57:50.835Z,81.00
